This demonstration page uses our WeatherBlox Daily Observations layout. Learn more.

41.55636, -103.73856

Hourly Observations for January 30, 2019

Temp ( °F °C ) Dew Point ( °F °C ) Humidity (%) Winds ( mph kmh ) Pressure ( in mb ) Visibility ( mi km ) Precip ( " mm )
12:58 am 00:58 Clear 17 -8.3 9 -12.9 70 70 N 14 22 30.23 1024 10 16.0934 N/A
1:58 am 01:58 Clear 14 -10 8 -13.4 76 76 N 10 17 30.27 1025 10 16.0934 N/A
2:58 am 02:58 Clear 12 -10.9 7 -13.7 80 80 NNE 8 13 30.27 1025 10 16.0934 N/A
3:58 am 03:58 Clear 11 -11.9 6 -14.3 83 83 N 5 7 30.24 1024 10 16.0934 N/A
4:58 am 04:58 Clear 9 -12.6 5 -14.9 83 83 Calm 30.4 1029 10 16.0934 N/A
5:58 am 05:58 Clear 8 -13.5 4 -15.6 84 84 SW 8 13 30.41 1030 10 16.0934 N/A
6:58 am 06:58 Mostly Cloudy 9 -12.9 5 -15 84 84 SW 9 15 30.39 1029 10 16.0934 N/A
7:58 am 07:58 Clear 9 -12.8 6 -14.7 86 86 SW 13 20 30.16 1022 10 16.0934 N/A
8:58 am 08:58 Clear 11 -11.6 7 -14.1 82 82 SW 15 24 30.13 1020 10 16.0934 N/A
9:58 am 09:58 Clear 13 -10.5 7 -13.7 78 78 SW 18 30 30.08 1019 10 16.0934 N/A
10:58 am 10:58 Clear 11 -11.4 6 -14.5 78 78 SW 17 28 30.05 1018 10 16.0934 N/A
11:58 am 11:58 Clear 12 -11.2 6 -14.4 77 77 SW 17 28 30.06 1018 10 16.0934 N/A
12:58 pm 12:58 Clear 13 -10.3 5 -14.9 69 69 WSW 14 22 30.04 1017 10 16.0934 N/A
3:58 pm 15:58 Sunny 28 -2.4 9 -12.7 45 45 NW 21 33 30.04 1017 10 16.0934 N/A
4:58 pm 16:58 Sunny 32 0.2 7 -14.1 34 34 NW 25 41 30.04 1017 10 16.0934 N/A
5:58 pm 17:58 Sunny 35 1.8 6 -14.5 29 29 NW 23 37 30.02 1017 10 16.0934 N/A
6:58 pm 18:58 Sunny 38 3.3 5 -15 25 25 NW 17 28 30 1016 10 16.0934 N/A
7:58 pm 19:58 Sunny 38 3.6 4 -15.6 23 23 NW 23 37 29.96 1015 10 16.0934 N/A
8:58 pm 20:58 Sunny 39 4 6 -14.7 24 24 NW 21 33 29.95 1014 10 16.0934 N/A
9:58 pm 21:58 Sunny 37 2.5 7 -13.8 29 29 NW 16 26 29.95 1014 10 16.0934 N/A
10:58 pm 22:58 Sunny 36 2.1 7 -13.9 30 30 NNW 21 33 29.96 1014 10 16.0934 N/A

Powered by AerisWeather